Terminal Aerodrome Forecast
Issued by NWS

Home | Current Version | Previous Version | Graphics & Text | Print | Product List | Glossary On
Versions: 1 2 3 4 5 6 7 8 9 10 11 12 13 14 15
000
FTUS43 KMPX 171720
TAFRNH
TAF
KRNH 171720Z 1718/1818 36007KT P6SM SCT070
     FM180200 07005KT P6SM BKN100
     FM181100 05007KT P6SM BKN030
     FM181300 05006KT P6SM BKN015=

USA.gov is the U.S. government's official web portal to all federal, state and local government web resources and services.